Time,TemperatureF,DewpointF,PressureIn,WindDirection,WindDirectionDegrees,WindSpeedMPH,WindSpeedGustMPH,Humidity,HourlyPrecipIn,Conditions,Clouds,dailyrainin,SolarRadiationWatts/m^2,SoftwareType,DateUTC
2013-05-26 00:00:00,53.0,26.0,-100.00,SSE,162,3.0,4.0,35,-99.99,,,0.00,0.000000,,2013-05-26 06:00:00,
2013-05-26 00:52:00,53.0,26.0,-100.00,SSE,162,3.0,4.0,35,-99.99,,,0.00,0.000000,,2013-05-26 06:52:00,
2013-05-26 01:00:00,52.0,-99.9,-100.00,North,-999,-999.0,-999.0,-999,-99.99,,,0.00,,,2013-05-26 07:00:00,
2013-05-26 01:52:00,52.0,-99.9,-100.00,North,-999,-999.0,-999.0,-999,-99.99,,,0.00,,,2013-05-26 07:52:00,
2013-05-26 02:00:00,49.0,26.0,-100.00,SSE,149,2.0,4.0,39,-99.99,,,0.00,0.000000,,2013-05-26 08:00:00,
2013-05-26 02:53:00,49.0,26.0,-100.00,SSE,149,2.0,4.0,39,-99.99,,,0.00,0.000000,,2013-05-26 08:53:00,
2013-05-26 03:00:00,50.0,19.0,-100.00,SE,146,2.0,4.0,29,-99.99,,,0.00,0.000000,,2013-05-26 09:00:00,
2013-05-26 03:53:00,50.0,19.0,-100.00,SE,146,2.0,4.0,29,-99.99,,,0.00,0.000000,,2013-05-26 09:53:00,
2013-05-26 04:00:00,49.0,15.0,-100.00,SSE,148,2.0,3.0,26,-99.99,,,0.00,0.000000,,2013-05-26 10:00:00,
2013-05-26 04:52:00,49.0,15.0,-100.00,SSE,148,2.0,3.0,26,-99.99,,,0.00,0.000000,,2013-05-26 10:52:00,
2013-05-26 05:00:00,47.0,15.0,-100.00,SSE,151,2.0,3.0,27,-99.99,,,0.00,0.000000,,2013-05-26 11:00:00,
2013-05-26 05:52:00,47.0,15.0,-100.00,SSE,151,2.0,3.0,27,-99.99,,,0.00,0.000000,,2013-05-26 11:52:00,
2013-05-26 06:00:00,46.0,14.0,-100.00,SSE,155,2.0,4.0,27,-99.99,,,0.00,0.600000,,2013-05-26 12:00:00,
2013-05-26 06:52:00,46.0,14.0,-100.00,SSE,155,2.0,4.0,27,-99.99,,,0.00,0.600000,,2013-05-26 12:52:00,
2013-05-26 07:00:00,48.0,16.0,-100.00,SSE,154,2.0,3.0,27,-99.99,,,0.00,25.000000,,2013-05-26 13:00:00,
2013-05-26 07:52:00,48.0,16.0,-100.00,SSE,154,2.0,3.0,27,-99.99,,,0.00,25.000000,,2013-05-26 13:52:00,
2013-05-26 08:00:00,55.0,20.0,-100.00,SE,129,1.0,2.0,25,-99.99,,,0.00,186.199997,,2013-05-26 14:00:00,
2013-05-26 08:52:00,55.0,20.0,-100.00,SE,129,1.0,2.0,25,-99.99,,,0.00,186.199997,,2013-05-26 14:52:00,
2013-05-26 09:00:00,58.0,13.0,-100.00,North,9,1.0,4.0,17,-99.99,,,0.00,253.699997,,2013-05-26 15:00:00,
2013-05-26 09:53:00,58.0,13.0,-100.00,North,9,1.0,4.0,17,-99.99,,,0.00,253.699997,,2013-05-26 15:53:00,
2013-05-26 10:00:00,59.0,13.0,-100.00,NNE,16,1.0,5.0,16,-99.99,,,0.00,191.100006,,2013-05-26 16:00:00,
2013-05-26 10:53:00,59.0,13.0,-100.00,NNE,16,1.0,5.0,16,-99.99,,,0.00,191.100006,,2013-05-26 16:53:00,
2013-05-26 11:00:00,60.0,14.0,-100.00,NNE,15,2.0,5.0,16,-99.99,,,0.00,395.600006,,2013-05-26 17:00:00,
2013-05-26 11:52:00,60.0,14.0,-100.00,NNE,15,2.0,5.0,16,-99.99,,,0.00,395.600006,,2013-05-26 17:52:00,
2013-05-26 12:00:00,63.0,15.0,-100.00,North,7,2.0,6.0,15,-99.99,,,0.00,752.400024,,2013-05-26 18:00:00,
2013-05-26 12:52:00,63.0,15.0,-100.00,North,7,2.0,6.0,15,-99.99,,,0.00,752.400024,,2013-05-26 18:52:00,
2013-05-26 13:00:00,65.0,13.0,-100.00,NNE,19,2.0,7.0,13,-99.99,,,0.00,986.599976,,2013-05-26 19:00:00,
2013-05-26 13:52:00,65.0,13.0,-100.00,NNE,19,2.0,7.0,13,-99.99,,,0.00,986.599976,,2013-05-26 19:52:00,
2013-05-26 14:00:00,68.0,13.0,-100.00,NNE,27,3.0,7.0,12,-99.99,,,0.00,,,2013-05-26 20:00:00,
2013-05-26 14:52:00,68.0,13.0,-100.00,NNE,27,3.0,7.0,12,-99.99,,,0.00,,,2013-05-26 20:52:00,
2013-05-26 15:00:00,65.0,10.0,-100.00,NNE,31,3.0,8.0,11,-99.99,,,-99.99,985.700012,,2013-05-26 21:00:00,
2013-05-26 15:53:00,65.0,10.0,-100.00,NNE,31,3.0,8.0,11,-99.99,,,-99.99,985.700012,,2013-05-26 21:53:00,
2013-05-26 16:00:00,68.0,11.0,-100.00,NNE,24,2.0,8.0,11,-99.99,,,0.00,859.599976,,2013-05-26 22:00:00,
2013-05-26 16:53:00,68.0,11.0,-100.00,NNE,24,2.0,8.0,11,-99.99,,,0.00,859.599976,,2013-05-26 22:53:00,
2013-05-26 17:00:00,67.0,11.0,-100.00,NE,45,3.0,7.0,11,-99.99,,,0.00,647.099976,,2013-05-26 23:00:00,
2013-05-26 17:52:00,67.0,11.0,-100.00,NE,45,3.0,7.0,11,-99.99,,,0.00,647.099976,,2013-05-26 23:52:00,
2013-05-26 18:00:00,65.0,9.0,-100.00,NE,47,2.0,6.0,11,-99.99,,,0.00,126.699997,,2013-05-27 00:00:00,
2013-05-26 18:52:00,65.0,9.0,-100.00,NE,47,2.0,6.0,11,-99.99,,,0.00,126.699997,,2013-05-27 00:52:00,
2013-05-26 19:00:00,63.0,10.0,-100.00,NE,52,1.0,7.0,12,-99.99,,,0.00,85.500000,,2013-05-27 01:00:00,
2013-05-26 19:52:00,63.0,10.0,-100.00,NE,52,1.0,7.0,12,-99.99,,,0.00,85.500000,,2013-05-27 01:52:00,
2013-05-26 20:00:00,59.0,8.0,-100.00,ESE,102,1.0,5.0,13,-99.99,,,0.00,37.599998,,2013-05-27 02:00:00,
2013-05-26 20:52:00,59.0,8.0,-100.00,ESE,102,1.0,5.0,13,-99.99,,,0.00,37.599998,,2013-05-27 02:52:00,
2013-05-26 21:00:00,54.0,11.0,-100.00,SSE,147,1.0,4.0,17,-99.99,,,0.00,0.600000,,2013-05-27 03:00:00,
2013-05-26 21:53:00,54.0,11.0,-100.00,SSE,147,1.0,4.0,17,-99.99,,,0.00,0.600000,,2013-05-27 03:53:00,
2013-05-26 22:00:00,53.0,9.0,-100.00,SSE,152,2.0,4.0,17,-99.99,,,0.00,0.000000,,2013-05-27 04:00:00,
2013-05-26 22:52:00,53.0,9.0,-100.00,SSE,152,2.0,4.0,17,-99.99,,,0.00,0.000000,,2013-05-27 04:52:00,
2013-05-26 23:00:00,51.0,8.0,-100.00,SSE,156,3.0,3.0,17,-99.99,,,0.00,0.000000,,2013-05-27 05:00:00,
2013-05-26 23:52:00,51.0,8.0,-100.00,SSE,156,3.0,3.0,17,-99.99,,,0.00,0.000000,,2013-05-27 05:52:00,